Time;durP1;ratioP1;P1;durP2;ratioP2;P2;SDS_P1;SDS_P2;PMS_P1;PMS_P2;Temp;Humidity;BMP_temperature;BMP_pressure;BME280_temperature;BME280_humidity;BME280_pressure;Samples;Min_cycle;Max_cycle;Signal;HPM_P1;HPM_P2
2022/01/10 00:01:57;;;;;;;63.22;22.27;;;1.50;99.90;;;;;;5020154;28;20032;-91
2022/01/10 00:04:23;;;;;;;68.03;22.90;;;1.50;99.90;;;;;;5011283;28;20026;-90
2022/01/10 00:06:48;;;;;;;69.68;23.75;;;1.50;99.90;;;;;;5000743;28;20032;-90
2022/01/10 00:09:14;;;;;;;59.95;23.15;;;1.50;99.90;;;;;;5000935;28;20029;-91
2022/01/10 00:11:40;;;;;;;58.58;22.85;;;1.50;99.90;;;;;;4999986;28;20030;-90
2022/01/10 00:14:06;;;;;;;76.20;22.52;;;1.40;99.90;;;;;;4999965;28;20499;-91
2022/01/10 00:16:31;;;;;;;61.17;21.40;;;1.50;99.90;;;;;;5008224;28;20030;-91
2022/01/10 00:18:57;;;;;;;52.33;21.40;;;1.50;99.90;;;;;;5019745;28;20055;-91
2022/01/10 00:21:23;;;;;;;53.10;20.15;;;1.50;99.90;;;;;;5019332;28;20044;-91
2022/01/10 00:23:48;;;;;;;53.45;22.33;;;1.50;99.90;;;;;;5013885;28;20377;-91
2022/01/10 00:26:14;;;;;;;52.95;21.40;;;1.50;99.90;;;;;;5000286;28;20080;-92
2022/01/10 00:28:40;;;;;;;79.53;24.33;;;1.50;99.90;;;;;;4999194;28;20515;-91
2022/01/10 00:31:06;;;;;;;64.78;22.70;;;1.50;99.90;;;;;;4999621;28;20022;-91
2022/01/10 00:33:32;;;;;;;65.97;23.73;;;1.60;99.90;;;;;;4999724;28;20113;-91
2022/01/10 00:35:57;;;;;;;56.85;22.55;;;1.50;99.90;;;;;;4999456;28;20025;-91
2022/01/10 00:38:23;;;;;;;54.63;22.30;;;1.60;99.90;;;;;;5018193;28;20034;-90
2022/01/10 00:40:50;;;;;;;57.78;22.63;;;1.50;99.90;;;;;;4999617;28;20022;-91
2022/01/10 00:43:30;;;;;;;64.78;23.98;;;1.60;99.90;;;;;;4999415;28;20030;-91
2022/01/10 00:45:56;;;;;;;65.37;22.93;;;1.60;99.90;;;;;;5000159;28;20030;-90
2022/01/10 00:48:22;;;;;;;86.72;24.40;;;1.50;99.90;;;;;;5016746;28;20037;-91
2022/01/10 00:50:48;;;;;;;63.40;24.30;;;1.60;99.90;;;;;;5005964;28;20034;-91
2022/01/10 00:53:14;;;;;;;58.78;23.20;;;1.50;99.90;;;;;;4999281;28;20030;-91
2022/01/10 00:55:40;;;;;;;60.28;24.83;;;1.50;99.90;;;;;;4998822;28;20050;-91
2022/01/10 00:58:06;;;;;;;72.07;24.60;;;1.50;99.90;;;;;;4999134;28;20025;-91
2022/01/10 01:00:32;;;;;;;72.97;25.65;;;1.60;99.90;;;;;;4999302;28;20029;-91
2022/01/10 01:03:00;;;;;;;57.83;23.08;;;1.50;99.90;;;;;;5016627;28;20101;-91
2022/01/10 01:05:27;;;;;;;80.20;26.20;;;1.50;99.90;;;;;;5010630;28;20025;-91
2022/01/10 01:07:53;;;;;;;66.95;27.58;;;1.50;99.90;;;;;;5006754;28;20033;-91
2022/01/10 01:13:04;;;;;;;115.43;40.50;;;1.60;99.90;;;;;;5033972;28;20026;-91
2022/01/10 01:15:32;;;;;;;92.88;36.25;;;1.60;99.90;;;;;;5018304;28;20022;-91
2022/01/10 01:18:12;;;;;;;96.85;36.13;;;1.60;99.90;;;;;;5018437;28;20112;-91
2022/01/10 01:25:48;;;;;;;97.43;35.58;;;1.60;99.90;;;;;;5017218;28;20053;-91
2022/01/10 01:28:14;;;;;;;145.13;38.67;;;1.60;99.90;;;;;;4998810;28;20440;-91
2022/01/10 01:30:42;;;;;;;115.85;37.72;;;1.60;99.90;;;;;;4999379;28;20116;-91
2022/01/10 01:33:08;;;;;;;85.68;34.38;;;1.60;99.90;;;;;;4998563;28;20400;-91
2022/01/10 01:35:35;;;;;;;92.85;35.90;;;1.50;99.90;;;;;;4998279;28;20055;-91
2022/01/10 01:38:01;;;;;;;99.30;36.00;;;1.50;99.90;;;;;;4999152;28;20046;-92
2022/01/10 01:40:31;;;;;;;102.38;37.55;;;1.60;99.90;;;;;;5014962;28;20053;-91
2022/01/10 01:42:57;;;;;;;;;;;1.60;99.90;;;;;;5018472;28;20086;-91
2022/01/10 01:45:45;;;;;;;144.13;37.75;;;1.50;99.90;;;;;;5018627;28;19905;-91
2022/01/10 01:48:12;;;;;;;143.63;41.88;;;1.60;99.90;;;;;;5017917;28;20029;-91
2022/01/10 01:50:38;;;;;;;129.15;43.92;;;1.60;99.90;;;;;;5003750;28;20380;-91
2022/01/10 01:53:05;;;;;;;147.35;45.20;;;1.50;99.90;;;;;;4998112;28;20037;-92
2022/01/10 01:55:31;;;;;;;139.18;46.20;;;1.50;99.90;;;;;;4997862;28;20508;-91
2022/01/10 01:57:57;;;;;;;100.80;40.40;;;1.50;99.90;;;;;;5010483;28;20033;-91
2022/01/10 02:00:24;;;;;;;127.60;43.05;;;1.50;99.90;;;;;;5017580;28;20021;-91
2022/01/10 02:02:51;;;;;;;123.90;42.58;;;1.50;99.90;;;;;;5017542;28;20502;-91
2022/01/10 02:05:16;;;;;;;124.93;42.75;;;1.50;99.90;;;;;;5017637;28;20036;-92
2022/01/10 02:07:42;;;;;;;162.82;50.45;;;1.50;99.90;;;;;;5017554;28;20021;-92
2022/01/10 02:10:09;;;;;;;107.50;41.70;;;1.50;99.90;;;;;;5017011;28;20036;-91
2022/01/10 02:12:34;;;;;;;115.93;41.95;;;1.50;99.90;;;;;;5017479;28;20057;-92
2022/01/10 02:15:00;;;;;;;145.07;45.15;;;1.50;99.90;;;;;;5017394;28;20057;-91
2022/01/10 02:17:34;;;;;;;110.90;45.33;;;1.60;99.90;;;;;;5017409;28;20071;-91
2022/01/10 02:20:02;;;;;;;128.18;48.63;;;1.60;99.90;;;;;;5017266;28;20026;-92
2022/01/10 02:22:28;;;;;;;112.35;43.97;;;1.60;99.90;;;;;;5003936;28;20018;-92
2022/01/10 02:24:54;;;;;;;144.77;50.97;;;1.60;99.90;;;;;;4997585;28;20033;-91
2022/01/10 02:27:24;;;;;;;114.18;47.47;;;1.60;99.90;;;;;;4998294;28;20087;-91
2022/01/10 02:29:50;;;;;;;107.03;44.20;;;1.60;99.90;;;;;;4998409;28;20461;-91
2022/01/10 02:32:16;;;;;;;113.95;47.10;;;1.60;99.90;;;;;;4997460;28;20037;-92
2022/01/10 02:34:42;;;;;;;108.55;43.13;;;1.60;99.90;;;;;;4997355;28;20080;-91
2022/01/10 02:37:08;;;;;;;70.63;33.22;;;1.60;99.90;;;;;;5009841;28;20056;-92
2022/01/10 02:39:34;;;;;;;93.43;39.30;;;1.70;99.90;;;;;;5016949;28;20053;-91
2022/01/10 02:42:00;;;;;;;73.82;32.30;;;1.70;99.90;;;;;;5017768;28;20519;-91
2022/01/10 02:44:26;;;;;;;67.53;30.83;;;1.70;99.90;;;;;;5016972;28;20024;-91
2022/01/10 02:46:51;;;;;;;61.20;27.98;;;1.60;99.90;;;;;;5016846;28;20064;-91
2022/01/10 02:49:28;;;;;;;60.35;27.52;;;1.70;99.90;;;;;;5017203;28;20025;-92
2022/01/10 02:51:56;;;;;;;71.80;30.70;;;1.60;99.90;;;;;;5000584;28;20057;-91
2022/01/10 02:54:23;;;;;;;63.88;28.20;;;1.60;99.90;;;;;;4997327;28;20034;-91
2022/01/10 02:56:55;;;;;;;65.90;29.13;;;1.60;99.90;;;;;;4997460;28;20054;-91
2022/01/10 02:59:23;;;;;;;66.30;28.98;;;1.60;99.90;;;;;;5015368;28;20018;-91
2022/01/10 03:01:49;;;;;;;73.60;30.20;;;1.60;99.90;;;;;;5013577;28;20025;-91
2022/01/10 03:04:15;;;;;;;64.63;28.17;;;1.60;99.90;;;;;;5016821;28;20032;-91
2022/01/10 03:06:42;;;;;;;71.10;30.63;;;1.60;99.90;;;;;;5016629;28;20042;-91
2022/01/10 03:09:12;;;;;;;78.28;33.75;;;1.60;99.90;;;;;;5015367;28;20028;-91
2022/01/10 03:11:39;;;;;;;57.53;26.70;;;1.50;99.90;;;;;;5014164;28;20033;-91
2022/01/10 03:14:05;;;;;;;58.25;26.45;;;1.50;99.90;;;;;;5015824;28;20036;-91
2022/01/10 03:16:31;;;;;;;47.28;22.58;;;1.50;99.90;;;;;;5012302;28;20026;-91
2022/01/10 03:18:57;;;;;;;41.45;20.52;;;1.50;99.90;;;;;;5017400;28;20448;-91
2022/01/10 03:21:23;;;;;;;35.08;17.95;;;1.50;99.90;;;;;;5016428;28;20036;-91
2022/01/10 03:23:51;;;;;;;36.47;18.73;;;1.50;99.90;;;;;;5016562;28;20040;-91
2022/01/10 03:26:20;;;;;;;37.05;19.25;;;1.50;99.90;;;;;;4998823;28;20495;-91
2022/01/10 03:28:46;;;;;;;33.15;18.13;;;1.40;99.90;;;;;;4997538;28;20080;-91
2022/01/10 03:31:12;;;;;;;33.63;17.48;;;1.40;99.90;;;;;;4998026;28;20030;-91
2022/01/10 03:33:38;;;;;;;30.20;16.80;;;1.40;99.90;;;;;;5043306;28;20086;-91
2022/01/10 03:36:04;;;;;;;30.38;15.80;;;1.40;99.90;;;;;;5033179;28;20026;-91
2022/01/10 03:38:30;;;;;;;27.42;14.43;;;1.40;99.90;;;;;;5016441;28;20542;-90
2022/01/10 03:40:56;;;;;;;23.80;14.52;;;1.40;99.90;;;;;;5016384;28;20053;-90
2022/01/10 03:43:21;;;;;;;24.25;13.77;;;1.40;99.90;;;;;;5017333;28;20048;-90
2022/01/10 03:45:47;;;;;;;26.30;14.10;;;1.40;99.90;;;;;;5016389;28;20033;-90
2022/01/10 03:48:13;;;;;;;28.42;13.35;;;1.40;99.90;;;;;;5016391;28;20025;-90
2022/01/10 03:50:38;;;;;;;24.40;13.18;;;1.40;99.90;;;;;;4999992;28;20030;-91
2022/01/10 03:53:04;;;;;;;22.00;11.82;;;1.40;99.90;;;;;;5006777;28;20032;-91
2022/01/10 03:55:30;;;;;;;22.45;11.95;;;1.50;99.90;;;;;;5003129;28;20053;-90
2022/01/10 03:57:56;;;;;;;26.73;13.95;;;1.40;99.90;;;;;;5014789;28;20022;-90
2022/01/10 04:00:21;;;;;;;24.85;12.65;;;1.40;99.90;;;;;;5016372;28;20026;-90
2022/01/10 04:02:56;;;;;;;25.23;13.00;;;1.40;99.90;;;;;;5016269;28;20032;-91
2022/01/10 04:05:22;;;;;;;23.27;11.20;;;1.40;99.90;;;;;;5018824;28;20049;-90
2022/01/10 04:07:48;;;;;;;25.48;13.93;;;1.40;99.90;;;;;;5019372;28;20488;-91
2022/01/10 04:10:14;;;;;;;25.50;13.02;;;1.40;99.90;;;;;;5016284;28;20057;-91
2022/01/10 04:12:40;;;;;;;27.70;14.63;;;1.40;99.90;;;;;;5019373;28;20042;-91
2022/01/10 04:15:06;;;;;;;28.38;14.68;;;1.30;99.90;;;;;;5019685;28;20049;-91
2022/01/10 04:17:32;;;;;;;32.58;16.80;;;1.30;99.90;;;;;;5019221;28;20032;-92
2022/01/10 04:19:57;;;;;;;31.23;16.42;;;1.30;99.90;;;;;;5019283;28;20021;-90
2022/01/10 04:22:26;;;;;;;35.83;19.33;;;1.20;99.90;;;;;;5008330;28;20032;-90
2022/01/10 04:24:52;;;;;;;38.22;19.20;;;1.20;99.90;;;;;;5019438;28;20049;-91
2022/01/10 04:27:17;;;;;;;40.33;20.63;;;1.20;99.90;;;;;;5029575;28;20467;-91
2022/01/10 04:29:43;;;;;;;39.20;18.90;;;1.30;99.90;;;;;;5039003;28;20060;-91
2022/01/10 04:32:11;;;;;;;41.15;20.73;;;1.20;99.90;;;;;;5031914;28;20036;-90
2022/01/10 04:34:37;;;;;;;37.38;19.05;;;1.20;99.90;;;;;;5024846;28;20471;-90
2022/01/10 04:37:03;;;;;;;39.92;19.92;;;1.20;99.90;;;;;;5019652;28;20036;-91
2022/01/10 04:39:29;;;;;;;38.15;19.17;;;1.30;99.90;;;;;;5019377;28;20074;-91
2022/01/10 04:41:55;;;;;;;43.05;19.70;;;1.30;99.90;;;;;;5018991;28;20117;-91
2022/01/10 04:44:21;;;;;;;42.10;19.52;;;1.20;99.90;;;;;;5018947;28;20068;-90
2022/01/10 04:46:47;;;;;;;39.85;18.67;;;1.20;99.90;;;;;;5019039;28;20053;-91
2022/01/10 04:49:21;;;;;;;38.03;19.00;;;1.20;99.90;;;;;;5018985;28;20021;-91
2022/01/10 04:51:48;;;;;;;36.33;18.20;;;1.10;99.90;;;;;;5019172;28;20025;-90
2022/01/10 04:54:15;;;;;;;35.17;18.80;;;1.20;99.90;;;;;;5018998;28;20053;-91
2022/01/10 04:56:40;;;;;;;36.60;17.83;;;1.10;99.90;;;;;;5018558;28;20057;-91
2022/01/10 04:59:06;;;;;;;39.17;19.30;;;1.10;99.90;;;;;;5019153;28;20033;-90
2022/01/10 05:01:32;;;;;;;38.15;18.58;;;1.10;99.90;;;;;;5018684;28;20021;-91
2022/01/10 05:03:58;;;;;;;35.08;18.40;;;1.10;99.90;;;;;;5018583;28;20040;-91
2022/01/10 05:06:23;;;;;;;42.90;19.17;;;1.10;99.90;;;;;;5018866;28;20025;-90
2022/01/10 05:08:49;;;;;;;39.08;19.23;;;1.10;99.90;;;;;;5018810;28;20026;-91
2022/01/10 05:11:16;;;;;;;42.13;20.02;;;1.10;99.90;;;;;;5018482;28;20030;-91
2022/01/10 05:13:42;;;;;;;42.45;19.90;;;1.10;99.90;;;;;;5019065;28;20040;-91
2022/01/10 05:16:08;;;;;;;44.78;20.95;;;1.10;99.90;;;;;;5018281;28;20025;-91
2022/01/10 05:18:34;;;;;;;46.75;19.80;;;1.10;99.90;;;;;;5019036;28;20029;-92
2022/01/10 05:20:59;;;;;;;39.17;19.08;;;1.10;99.90;;;;;;5018554;28;20056;-91
2022/01/10 05:23:25;;;;;;;45.40;20.85;;;1.10;99.90;;;;;;5018364;28;20026;-91
2022/01/10 05:25:51;;;;;;;44.63;19.52;;;1.10;99.90;;;;;;5018198;28;20026;-91
2022/01/10 05:28:17;;;;;;;42.67;20.23;;;1.10;99.90;;;;;;5018597;28;20033;-91
2022/01/10 15:20:17;;;;;;;34.72;17.40;;;-0.80;99.90;;;;;;5091479;28;20966;-92
2022/01/10 15:22:43;;;;;;;35.30;15.30;;;-0.80;99.90;;;;;;5074239;28;20032;-91
2022/01/10 15:25:09;;;;;;;37.80;20.45;;;-0.90;99.90;;;;;;5072271;28;20505;-92
2022/01/10 15:27:35;;;;;;;41.58;20.50;;;-0.90;99.90;;;;;;5074173;28;20028;-92
2022/01/10 15:30:04;;;;;;;35.72;17.25;;;-0.80;99.90;;;;;;5056311;28;20031;-95
2022/01/10 15:32:30;;;;;;;31.60;16.15;;;-0.80;99.90;;;;;;5053937;28;20028;-95
2022/01/10 15:34:56;;;;;;;28.90;15.43;;;-0.80;99.90;;;;;;5053590;28;20021;-96
2022/01/10 15:37:22;;;;;;;31.75;16.90;;;-0.80;99.90;;;;;;5054118;28;20027;-95
2022/01/10 15:39:47;;;;;;;35.47;18.70;;;-0.90;99.90;;;;;;5053726;28;20509;-93
2022/01/10 15:42:14;;;;;;;31.67;16.17;;;-0.80;99.90;;;;;;5054850;28;20035;-95
2022/01/10 15:44:46;;;;;;;32.40;17.95;;;-0.90;99.90;;;;;;5053474;28;20048;-93
2022/01/10 15:47:12;;;;;;;28.65;15.80;;;-0.80;99.90;;;;;;5053823;28;20027;-93
2022/01/10 15:49:39;;;;;;;35.00;16.85;;;-0.80;99.90;;;;;;5053449;28;20029;-94
2022/01/10 15:52:05;;;;;;;27.65;15.43;;;-0.80;99.90;;;;;;5053753;28;20082;-94
2022/01/10 15:54:31;;;;;;;28.83;14.65;;;-0.80;99.90;;;;;;5054105;28;20025;-93
2022/01/10 15:57:03;;;;;;;25.88;14.60;;;-0.80;99.90;;;;;;5053957;28;20021;-96
2022/01/10 15:59:32;;;;;;;36.28;18.17;;;-0.90;99.90;;;;;;5054543;28;20043;-96
2022/01/10 16:02:02;;;;;;;40.60;19.73;;;-0.90;99.90;;;;;;5058799;28;20063;-96
2022/01/10 16:04:28;;;;;;;37.97;18.90;;;-0.90;99.90;;;;;;5057649;28;20029;-96
2022/01/10 16:06:55;;;;;;;40.47;19.17;;;-1.00;99.90;;;;;;5056618;28;20025;-95
2022/01/10 16:09:21;;;;;;;37.03;18.92;;;-1.00;99.90;;;;;;5053967;28;20028;-96
2022/01/10 16:11:46;;;;;;;33.15;17.52;;;-1.10;99.90;;;;;;5053474;28;20033;-94
2022/01/10 16:14:13;;;;;;;27.70;14.85;;;-1.10;99.90;;;;;;5055019;28;20025;-94
2022/01/10 16:16:39;;;;;;;26.65;14.52;;;-1.10;99.90;;;;;;5054408;28;20071;-95
2022/01/10 16:19:05;;;;;;;28.00;14.57;;;-1.20;99.90;;;;;;5052925;28;20490;-94
2022/01/10 16:21:31;;;;;;;34.08;15.93;;;-1.10;99.90;;;;;;5053718;28;20091;-96
2022/01/10 16:23:57;;;;;;;32.15;15.55;;;-1.10;99.90;;;;;;5054254;28;20220;-96
2022/01/10 16:26:23;;;;;;;27.00;13.70;;;-1.20;99.90;;;;;;5053028;28;20043;-95
2022/01/10 16:28:48;;;;;;;28.50;14.30;;;-1.20;99.90;;;;;;5054146;28;20499;-95
2022/01/10 16:31:20;;;;;;;26.25;13.65;;;-1.30;99.90;;;;;;5043373;28;20340;-95
2022/01/10 16:33:45;;;;;;;28.08;14.00;;;-1.20;99.90;;;;;;5040504;28;20087;-95
2022/01/10 16:36:12;;;;;;;26.35;13.60;;;-1.30;99.90;;;;;;5040272;28;20025;-96
2022/01/10 16:38:39;;;;;;;26.88;14.15;;;-1.40;99.90;;;;;;5039287;28;20033;-95
2022/01/10 16:41:06;;;;;;;29.45;14.98;;;-1.20;99.90;;;;;;5038657;28;20025;-95
2022/01/10 16:43:32;;;;;;;31.77;15.98;;;-1.30;99.90;;;;;;5039012;28;20102;-95
2022/01/10 16:45:58;;;;;;;31.98;17.17;;;-1.20;99.90;;;;;;5038716;28;20029;-94
2022/01/10 16:48:24;;;;;;;31.23;16.33;;;-1.20;99.90;;;;;;5039504;28;20032;-95
2022/01/10 16:50:50;;;;;;;29.65;15.25;;;-1.20;99.90;;;;;;5039519;28;20475;-94
2022/01/10 16:53:16;;;;;;;35.33;18.00;;;-1.10;99.90;;;;;;5038979;28;20052;-94
2022/01/10 16:55:41;;;;;;;31.55;17.27;;;-1.20;99.90;;;;;;5038924;28;20028;-95
2022/01/10 16:58:08;;;;;;;34.40;18.25;;;-1.20;99.90;;;;;;5038855;28;20095;-95
2022/01/10 17:00:35;;;;;;;31.13;17.02;;;-1.20;99.90;;;;;;5038828;28;20028;-96
2022/01/10 17:03:01;;;;;;;31.83;16.92;;;-1.20;99.90;;;;;;5039165;28;20027;-96
2022/01/10 17:05:30;;;;;;;35.63;17.50;;;-1.20;99.90;;;;;;5040269;28;20021;-96
2022/01/10 17:07:55;;;;;;;31.50;17.23;;;-1.20;99.90;;;;;;5038526;28;20023;-96
2022/01/10 17:10:21;;;;;;;31.35;16.27;;;-1.30;99.90;;;;;;5039317;28;20025;-96
2022/01/10 17:12:53;;;;;;;31.08;16.80;;;-1.30;99.90;;;;;;5038630;28;20467;-96
2022/01/10 17:15:22;;;;;;;33.17;17.45;;;-1.30;99.90;;;;;;5040502;28;20028;-96
2022/01/10 17:17:48;;;;;;;27.95;14.18;;;-1.30;99.90;;;;;;5038738;28;20127;-96
2022/01/10 17:20:14;;;;;;;29.92;16.90;;;-1.30;99.90;;;;;;5038827;28;20579;-96
2022/01/10 17:22:40;;;;;;;41.03;20.02;;;-1.30;99.90;;;;;;5038381;28;20025;-94
2022/01/10 17:25:09;;;;;;;31.80;14.35;;;-1.40;99.90;;;;;;5039028;28;20025;-94
2022/01/10 17:27:34;;;;;;;22.98;13.60;;;-1.30;99.90;;;;;;5039056;28;20024;-96
2022/01/10 17:30:00;;;;;;;26.33;14.57;;;-1.40;99.90;;;;;;5040851;28;20025;-96
2022/01/10 17:32:26;;;;;;;25.40;13.93;;;-1.40;99.90;;;;;;5039932;28;20032;-96
2022/01/10 17:34:52;;;;;;;53.90;21.95;;;-1.40;99.90;;;;;;5039225;28;20040;-96
2022/01/10 17:37:18;;;;;;;84.28;35.65;;;-1.30;99.90;;;;;;5038444;28;20055;-96
2022/01/10 17:39:44;;;;;;;46.88;21.15;;;-1.30;99.90;;;;;;5038760;28;20455;-96
2022/01/10 17:42:10;;;;;;;33.58;18.70;;;-1.30;99.90;;;;;;5037678;28;20116;-96
2022/01/10 17:44:35;;;;;;;32.67;17.38;;;-1.30;99.90;;;;;;5040582;28;20029;-96
2022/01/10 17:47:02;;;;;;;35.92;19.55;;;-1.40;99.90;;;;;;5039059;28;20018;-96
2022/01/10 17:49:29;;;;;;;32.17;17.48;;;-1.40;99.90;;;;;;5040898;28;20033;-96
2022/01/10 17:52:11;;;;;;;29.38;15.20;;;-1.40;99.90;;;;;;5041578;28;20029;-96
2022/01/10 17:54:38;;;;;;;26.33;15.00;;;-1.50;99.90;;;;;;5041949;28;20028;-96
2022/01/10 17:57:04;;;;;;;29.15;15.38;;;-1.40;99.90;;;;;;5038264;28;20047;-96
2022/01/10 17:59:30;;;;;;;29.13;15.98;;;-1.50;99.90;;;;;;5037918;28;20032;-96
2022/01/10 18:01:56;;;;;;;29.10;14.45;;;-1.50;99.90;;;;;;5039633;28;20017;-96
2022/01/10 18:04:22;;;;;;;27.75;15.43;;;-1.50;99.90;;;;;;5038009;28;20111;-96
2022/01/10 18:06:48;;;;;;;28.27;14.45;;;-1.50;99.90;;;;;;5038810;28;20383;-96
2022/01/10 18:09:13;;;;;;;26.13;14.77;;;-1.50;99.90;;;;;;5038258;28;20044;-96
2022/01/10 18:11:42;;;;;;;25.67;14.70;;;-1.50;99.90;;;;;;5038357;28;20017;-96
2022/01/10 18:14:08;;;;;;;30.25;15.15;;;-1.50;99.90;;;;;;5038778;28;20462;-96
2022/01/10 18:16:34;;;;;;;34.25;16.73;;;-1.50;99.90;;;;;;5038019;28;20064;-96
2022/01/10 18:18:59;;;;;;;26.30;13.95;;;-1.50;99.90;;;;;;5038172;28;20052;-96
2022/01/10 18:21:25;;;;;;;31.75;15.13;;;-1.50;99.90;;;;;;5037577;28;20017;-96
2022/01/10 18:23:51;;;;;;;29.48;14.32;;;-1.50;99.90;;;;;;5037168;28;20025;-95
2022/01/10 18:26:17;;;;;;;26.35;12.57;;;-1.40;99.90;;;;;;5037220;28;20190;-96
2022/01/10 18:28:42;;;;;;;23.73;12.13;;;-1.50;99.90;;;;;;5037713;28;20029;-96
2022/01/10 18:31:08;;;;;;;32.95;14.40;;;-1.50;99.90;;;;;;5037857;28;20481;-96
2022/01/10 18:33:36;;;;;;;34.95;13.40;;;-1.50;99.90;;;;;;5038909;28;20159;-96
2022/01/10 18:36:03;;;;;;;30.10;12.90;;;-1.60;99.90;;;;;;5038229;28;20025;-96
2022/01/10 18:38:29;;;;;;;66.18;20.75;;;-1.70;99.90;;;;;;5037577;28;20033;-96
2022/01/10 18:40:56;;;;;;;29.63;13.25;;;-1.80;99.90;;;;;;5036774;28;20083;-95
2022/01/10 18:43:22;;;;;;;36.25;15.35;;;-1.80;99.90;;;;;;5037776;28;20025;-96
2022/01/10 18:45:52;;;;;;;38.65;15.48;;;-1.80;99.90;;;;;;5036886;28;20029;-96
2022/01/10 18:48:18;;;;;;;50.22;18.08;;;-1.80;99.90;;;;;;5037740;28;20056;-95
2022/01/10 18:50:44;;;;;;;26.80;12.38;;;-1.80;99.90;;;;;;5036619;28;20398;-96
2022/01/10 18:53:11;;;;;;;24.38;12.32;;;-1.90;99.90;;;;;;5036138;28;20498;-95
2022/01/10 18:55:37;;;;;;;36.88;13.85;;;-2.00;99.90;;;;;;5037465;28;20032;-96
2022/01/10 18:58:05;;;;;;;30.63;13.30;;;-2.00;99.90;;;;;;5037390;28;20029;-96
2022/01/10 19:00:30;;;;;;;24.48;11.93;;;-2.00;99.90;;;;;;5036750;28;20459;-96
2022/01/10 19:02:56;;;;;;;27.85;12.80;;;-2.10;99.90;;;;;;5036881;28;20105;-96
2022/01/10 19:05:22;;;;;;;28.70;14.02;;;-2.20;99.90;;;;;;5037479;28;20025;-96
2022/01/10 19:07:49;;;;;;;35.97;16.70;;;-2.30;99.90;;;;;;5037691;28;20082;-96
2022/01/10 19:13:36;;;;;;;48.42;19.02;;;-2.30;99.90;;;;;;5056472;28;20386;-96
2022/01/10 19:16:02;;;;;;;32.80;14.50;;;-2.20;99.90;;;;;;5036468;28;20021;-96
2022/01/10 19:18:28;;;;;;;29.85;14.25;;;-2.30;99.90;;;;;;5036245;28;20064;-96
2022/01/10 19:20:54;;;;;;;19.52;10.75;;;-2.40;99.90;;;;;;5036727;28;20028;-96
2022/01/10 19:23:21;;;;;;;31.33;12.80;;;-2.40;99.90;;;;;;5037442;28;20025;-96
2022/01/10 19:25:51;;;;;;;30.75;14.52;;;-2.50;99.90;;;;;;5036609;28;20202;-96
2022/01/10 19:28:20;;;;;;;24.85;13.45;;;-2.40;99.90;;;;;;5037392;28;20032;-96
2022/01/10 19:30:51;;;;;;;28.67;12.00;;;-2.40;99.90;;;;;;5036692;28;20053;-96
2022/01/10 19:33:17;;;;;;;23.08;11.82;;;-2.40;99.90;;;;;;5036771;28;20025;-96
2022/01/10 19:35:43;;;;;;;16.60;9.75;;;-2.50;99.90;;;;;;5037172;28;20029;-96
2022/01/10 19:38:09;;;;;;;20.38;10.65;;;-2.50;99.90;;;;;;5037116;28;20025;-96
2022/01/10 19:40:35;;;;;;;17.42;9.30;;;-2.50;99.90;;;;;;5036496;28;20055;-96
2022/01/10 19:43:03;;;;;;;27.15;13.30;;;-2.60;99.90;;;;;;5036431;28;20025;-96
2022/01/10 19:45:29;;;;;;;30.98;12.88;;;-2.60;99.90;;;;;;5036116;28;20021;-96
2022/01/10 19:47:55;;;;;;;29.55;13.13;;;-2.70;99.90;;;;;;5037139;28;20029;-96
2022/01/10 19:50:22;;;;;;;29.45;14.48;;;-2.70;99.90;;;;;;5036255;28;20025;-96
2022/01/10 19:52:49;;;;;;;36.00;15.38;;;-2.70;99.90;;;;;;5036221;28;20081;-95
2022/01/10 19:55:16;;;;;;;20.63;11.00;;;-2.70;99.90;;;;;;5036416;28;20032;-96
2022/01/10 19:57:44;;;;;;;19.15;9.75;;;-2.60;99.90;;;;;;5036080;28;20064;-94
2022/01/10 20:00:15;;;;;;;28.77;12.93;;;-2.60;99.90;;;;;;5036012;28;20116;-94
2022/01/10 20:02:42;;;;;;;21.58;11.27;;;-2.60;99.90;;;;;;5036211;28;20017;-96
2022/01/10 20:05:09;;;;;;;29.02;13.85;;;-2.60;99.90;;;;;;5036492;28;20025;-96
2022/01/10 20:07:35;;;;;;;29.98;12.27;;;-2.60;99.90;;;;;;5039801;28;20024;-96
2022/01/10 20:10:01;;;;;;;23.95;12.02;;;-2.60;99.90;;;;;;5039881;28;20029;-96
2022/01/10 20:12:27;;;;;;;27.98;12.00;;;-2.60;99.90;;;;;;5040939;28;20115;-96
2022/01/10 20:15:03;;;;;;;22.27;12.38;;;-2.70;99.90;;;;;;5039936;28;20053;-96
2022/01/10 20:17:28;;;;;;;29.33;12.90;;;-2.80;99.90;;;;;;5039324;28;20033;-96
2022/01/10 20:19:55;;;;;;;21.73;10.63;;;-2.80;99.90;;;;;;5039940;28;20075;-96
2022/01/10 20:22:21;;;;;;;25.23;11.70;;;-2.80;99.90;;;;;;5039635;28;20017;-96
2022/01/10 20:24:49;;;;;;;23.27;11.82;;;-2.70;99.90;;;;;;5039376;28;20021;-96
2022/01/10 20:27:17;;;;;;;17.48;9.38;;;-2.80;99.90;;;;;;5040431;28;20455;-96
2022/01/10 20:29:42;;;;;;;22.73;11.27;;;-2.80;99.90;;;;;;5040485;28;20078;-96
2022/01/10 20:32:09;;;;;;;18.40;9.13;;;-2.80;99.90;;;;;;5040669;28;20108;-96
2022/01/10 20:34:35;;;;;;;16.58;9.77;;;-2.80;99.90;;;;;;5039645;28;20387;-96
2022/01/10 20:37:05;;;;;;;19.88;10.10;;;-2.80;99.90;;;;;;5040281;28;20029;-96
2022/01/10 20:39:30;;;;;;;19.52;8.43;;;-2.80;99.90;;;;;;5039876;28;20025;-96
2022/01/10 20:41:56;;;;;;;18.90;9.85;;;-2.80;99.90;;;;;;5039491;28;20108;-96
2022/01/10 20:44:39;;;;;;;40.42;17.70;;;-2.80;99.90;;;;;;5039841;28;20112;-96
2022/01/10 20:47:28;;;;;;;22.55;10.55;;;-2.90;99.90;;;;;;5039497;28;20021;-96
2022/01/10 20:49:54;;;;;;;27.35;12.07;;;-2.90;99.90;;;;;;5039558;28;20106;-95
2022/01/10 20:52:20;;;;;;;22.45;10.27;;;-3.00;99.90;;;;;;5040006;28;20107;-96
2022/01/10 20:54:51;;;;;;;19.20;10.65;;;-3.00;99.90;;;;;;5045064;28;20035;-96
2022/01/10 20:57:17;;;;;;;20.33;10.00;;;-3.10;99.90;;;;;;5043977;28;20029;-96
2022/01/10 20:59:46;;;;;;;24.42;10.43;;;-3.10;99.90;;;;;;5040736;28;20493;-96
2022/01/10 21:02:17;;;;;;;19.90;9.85;;;-3.10;99.90;;;;;;5039831;28;20024;-96
2022/01/10 21:05:03;;;;;;;22.88;10.80;;;-3.10;99.90;;;;;;5038731;28;20025;-96
2022/01/10 21:13:54;;;;;;;17.75;9.82;;;-3.10;99.90;;;;;;5057456;28;20104;-96
2022/01/10 21:16:25;;;;;;;17.05;8.88;;;-3.10;99.90;;;;;;5041076;28;20040;-96
2022/01/10 21:18:51;;;;;;;15.95;8.52;;;-3.10;99.90;;;;;;5040565;28;20487;-96
2022/01/10 21:21:17;;;;;;;18.88;8.38;;;-3.00;99.90;;;;;;5040815;28;20024;-96
2022/01/10 21:23:44;;;;;;;14.43;8.63;;;-2.90;99.90;;;;;;5039041;28;20028;-96
2022/01/10 21:26:10;;;;;;;14.60;8.07;;;-2.90;99.90;;;;;;5039175;28;20021;-96
2022/01/10 21:28:41;;;;;;;15.57;8.38;;;-2.90;99.90;;;;;;5038651;28;20385;-96
2022/01/10 21:31:07;;;;;;;15.95;9.27;;;-2.90;99.90;;;;;;5038602;28;20068;-96
2022/01/10 21:33:40;;;;;;;16.88;9.20;;;-3.00;99.90;;;;;;5038714;28;20490;-96
2022/01/10 21:36:09;;;;;;;22.90;10.32;;;-3.00;99.90;;;;;;5038567;28;20067;-96
2022/01/10 21:38:35;;;;;;;16.63;9.35;;;-3.10;99.90;;;;;;5038297;28;20483;-95
2022/01/10 21:41:01;;;;;;;16.63;9.63;;;-3.00;99.90;;;;;;5038388;28;20025;-96
2022/01/10 21:43:26;;;;;;;21.15;11.13;;;-3.00;99.90;;;;;;5038236;28;20025;-96
2022/01/10 21:45:52;;;;;;;19.55;10.85;;;-3.00;99.90;;;;;;5038492;28;20024;-96
2022/01/10 21:48:18;;;;;;;18.52;10.00;;;-3.00;99.90;;;;;;5038648;28;20552;-96
2022/01/10 21:50:44;;;;;;;18.30;9.13;;;-3.10;99.90;;;;;;5038539;28;20445;-96
2022/01/10 21:53:25;;;;;;;16.15;8.32;;;-3.20;99.90;;;;;;5039061;28;20475;-96
2022/01/10 21:55:55;;;;;;;17.23;9.23;;;-3.20;99.90;;;;;;5038207;28;20021;-96
2022/01/10 21:58:21;;;;;;;19.30;9.70;;;-3.20;99.90;;;;;;5038493;28;20055;-96
2022/01/10 22:00:58;;;;;;;12.48;8.02;;;-3.20;99.90;;;;;;5039222;28;20479;-94
2022/01/10 22:03:29;;;;;;;14.40;8.35;;;-3.30;99.90;;;;;;5038395;28;20029;-95
2022/01/10 22:05:55;;;;;;;19.55;8.90;;;-3.30;99.90;;;;;;5038754;28;20067;-96
2022/01/10 22:08:24;;;;;;;21.30;9.02;;;-3.30;99.90;;;;;;5037705;28;20032;-96
2022/01/10 22:10:53;;;;;;;18.73;8.40;;;-3.30;99.90;;;;;;5038036;28;20599;-96
2022/01/10 22:13:21;;;;;;;13.60;8.27;;;-3.40;99.90;;;;;;5037810;28;20025;-96
2022/01/10 22:15:47;;;;;;;14.98;7.45;;;-3.40;99.90;;;;;;5038341;28;20464;-96
2022/01/10 22:18:13;;;;;;;17.10;8.05;;;-3.30;99.90;;;;;;5038229;28;20057;-96
2022/01/10 22:20:39;;;;;;;15.45;8.07;;;-3.30;99.90;;;;;;5038359;28;20021;-96
2022/01/10 22:23:05;;;;;;;13.48;8.00;;;-3.30;99.90;;;;;;5037679;28;20028;-96
2022/01/10 22:25:33;;;;;;;13.40;7.80;;;-3.40;99.90;;;;;;5038422;28;20067;-96
2022/01/10 22:27:59;;;;;;;18.10;9.05;;;-3.40;99.90;;;;;;5037804;28;20510;-96
2022/01/10 22:30:33;;;;;;;12.20;7.47;;;-3.30;99.90;;;;;;5037557;28;20024;-96
2022/01/10 22:33:01;;;;;;;20.20;10.35;;;-3.30;99.90;;;;;;5038683;28;20056;-96
2022/01/10 22:35:27;;;;;;;16.13;8.30;;;-3.30;99.90;;;;;;5038190;28;20502;-96
2022/01/10 22:37:53;;;;;;;15.13;8.05;;;-3.30;99.90;;;;;;5037762;28;20029;-96
2022/01/10 22:40:19;;;;;;;15.50;8.32;;;-3.30;99.90;;;;;;5037969;28;20032;-96